Terminal Aerodrome Forecast
Issued by NWS

Home | Current Version | Previous Version | Text Only | Print | Product List | Glossary On
Versions: 1 2 3 4 5 6 7 8 9 10 11 12 13 14 15 16 17 18 19 20 21 22 23
000
FTUS45 KREV 180500
TAFTVL
TAF
KTVL 180522Z 1806/1906 19006KT P6SM FEW080
     FM181700 19010G18KT P6SM SCT080 SCT120
     FM182100 20012G22KT 6SM FU HZ SCT070 BKN100
     FM190100 20009KT 5SM FU HZ SCT060 BKN090=

USA.gov is the U.S. government's official web portal to all federal, state and local government web resources and services.